AFL7314 UUEE-URMM
Flight info
| Callsign | AFL7314 |
|---|---|
| Flight time | 2h 48m |
| Altitude | 33000 |
| Route | TOGMO3J TOGMO M56 ABAGI B105 NATIT DCT MOLED DCT LIDUS G242 ZG DCT ITAKA DCT OBBUD DCT AMKOL DCT GOTIK DCT MEMZA A962 OKARU OKARU5E |
| Aircraft | A320/M-MSDIE2E3FGHJ1RWY/LB1U1 |
Departure
| Time | 2026-05-05 17:49 |
|---|---|
| Airport | Sheremetyevo International Airport (UUEE) |
Arrival
| Time | 2026-05-05 20:37 |
|---|---|
| Airport | Mineralnye Vody Airport (URMM) |
| Time | Latitude | Longitude | Altitude | Speed | Heading |
|---|---|---|---|---|---|
| 2026-05-05 17:28 | 55.97920 | 37.41886 | 639 ft | 0 kts | 255° |
| 2026-05-05 17:38 | 55.97921 | 37.41893 | 642 ft | 3 kts | 255° |
| 2026-05-05 17:39 | 55.97927 | 37.41940 | 640 ft | 4 kts | 257° |
| 2026-05-05 17:39 | 55.97933 | 37.41987 | 641 ft | 4 kts | 258° |
| 2026-05-05 17:39 | 55.97938 | 37.42034 | 644 ft | 4 kts | 260° |
| 2026-05-05 17:39 | 55.97943 | 37.42081 | 639 ft | 4 kts | 261° |
| 2026-05-05 17:40 | 55.97948 | 37.42128 | 641 ft | 4 kts | 257° |
| 2026-05-05 17:40 | 55.97949 | 37.42139 | 640 ft | 0 kts | 255° |
| 2026-05-05 17:44 | 55.97949 | 37.42137 | 640 ft | 2 kts | 255° |
| 2026-05-05 17:44 | 55.97941 | 37.42086 | 639 ft | 7 kts | 255° |
| 2026-05-05 17:45 | 55.97889 | 37.42043 | 643 ft | 13 kts | 166° |
| 2026-05-05 17:45 | 55.97789 | 37.42090 | 639 ft | 15 kts | 165° |
| 2026-05-05 17:45 | 55.97710 | 37.42129 | 639 ft | 9 kts | 159° |
| 2026-05-05 17:45 | 55.97690 | 37.42217 | 642 ft | 8 kts | 84° |
| 2026-05-05 17:46 | 55.97707 | 37.42336 | 646 ft | 12 kts | 75° |
| 2026-05-05 17:46 | 55.97732 | 37.42507 | 640 ft | 16 kts | 75° |
| 2026-05-05 17:46 | 55.97760 | 37.42687 | 642 ft | 10 kts | 75° |
| 2026-05-05 17:46 | 55.97753 | 37.42782 | 642 ft | 7 kts | 138° |
| 2026-05-05 17:47 | 55.97712 | 37.42805 | 638 ft | 5 kts | 165° |
| 2026-05-05 17:47 | 55.97680 | 37.42820 | 638 ft | 4 kts | 165° |
| 2026-05-05 17:47 | 55.97658 | 37.42831 | 638 ft | 3 kts | 165° |
| 2026-05-05 17:47 | 55.97623 | 37.42854 | 642 ft | 5 kts | 154° |
| 2026-05-05 17:48 | 55.97602 | 37.42819 | 642 ft | 6 kts | 249° |
| 2026-05-05 17:48 | 55.97597 | 37.42788 | 642 ft | 0 kts | 256° |
| 2026-05-05 17:48 | 55.97595 | 37.42774 | 640 ft | 12 kts | 256° |
| 2026-05-05 17:49 | 55.97504 | 37.42158 | 638 ft | 87 kts | 255° |
| 2026-05-05 17:49 | 55.97295 | 37.40763 | 641 ft | 143 kts | 255° |
| 2026-05-05 17:49 | 55.97004 | 37.38844 | 911 ft | 164 kts | 255° |
| 2026-05-05 17:49 | 55.96545 | 37.36988 | 1552 ft | 164 kts | 238° |
| 2026-05-05 17:50 | 55.95907 | 37.35301 | 2247 ft | 164 kts | 236° |
| 2026-05-05 17:50 | 55.95235 | 37.33608 | 2636 ft | 175 kts | 237° |
| 2026-05-05 17:50 | 55.94492 | 37.31726 | 2793 ft | 197 kts | 237° |
| 2026-05-05 17:50 | 55.93655 | 37.29603 | 3007 ft | 220 kts | 237° |
| 2026-05-05 17:51 | 55.92766 | 37.27350 | 3651 ft | 222 kts | 237° |
| 2026-05-05 17:51 | 55.92178 | 37.25858 | 4163 ft | 222 kts | 236° |
| 2026-05-05 17:51 | 55.90993 | 37.22834 | 5176 ft | 222 kts | 237° |
| 2026-05-05 17:51 | 55.90108 | 37.20575 | 5928 ft | 224 kts | 235° |
| 2026-05-05 17:52 | 55.88895 | 37.18653 | 6223 ft | 250 kts | 208° |
| 2026-05-05 17:52 | 55.87755 | 37.18107 | 6524 ft | 264 kts | 189° |
| 2026-05-05 17:52 | 55.85898 | 37.17913 | 7183 ft | 270 kts | 187° |
| 2026-05-05 17:52 | 55.84013 | 37.17765 | 7922 ft | 272 kts | 187° |
| 2026-05-05 17:53 | 55.82110 | 37.17629 | 8684 ft | 275 kts | 187° |
| 2026-05-05 17:53 | 55.80190 | 37.17492 | 9431 ft | 277 kts | 187° |
| 2026-05-05 17:53 | 55.78251 | 37.17344 | 10146 ft | 280 kts | 188° |
| 2026-05-05 17:53 | 55.76237 | 37.17178 | 10425 ft | 299 kts | 188° |
| 2026-05-05 17:54 | 55.74129 | 37.16994 | 10949 ft | 307 kts | 187° |
| 2026-05-05 17:54 | 55.71987 | 37.16810 | 11581 ft | 311 kts | 187° |
| 2026-05-05 17:54 | 55.69806 | 37.16630 | 12229 ft | 315 kts | 187° |
| 2026-05-05 17:54 | 55.67601 | 37.16450 | 12873 ft | 319 kts | 187° |
| 2026-05-05 17:55 | 55.65354 | 37.16345 | 13308 ft | 333 kts | 180° |
| 2026-05-05 17:55 | 55.63037 | 37.17460 | 13442 ft | 361 kts | 156° |
| 2026-05-05 17:55 | 55.61008 | 37.20148 | 13726 ft | 378 kts | 141° |
| 2026-05-05 17:55 | 55.59002 | 37.23301 | 14212 ft | 383 kts | 141° |
| 2026-05-05 17:56 | 55.57000 | 37.26447 | 14745 ft | 386 kts | 141° |
| 2026-05-05 17:56 | 55.55000 | 37.29572 | 15285 ft | 389 kts | 141° |
| 2026-05-05 17:56 | 55.52934 | 37.32783 | 15820 ft | 392 kts | 141° |
| 2026-05-05 17:56 | 55.50902 | 37.35928 | 16340 ft | 395 kts | 141° |
| 2026-05-05 17:57 | 55.48826 | 37.39133 | 16883 ft | 398 kts | 141° |
| 2026-05-05 17:57 | 55.46737 | 37.42354 | 17420 ft | 401 kts | 141° |
| 2026-05-05 17:57 | 55.44626 | 37.45599 | 17965 ft | 403 kts | 141° |
| 2026-05-05 17:57 | 55.42502 | 37.48860 | 18454 ft | 406 kts | 141° |
| 2026-05-05 17:58 | 55.40362 | 37.52149 | 18929 ft | 409 kts | 141° |
| 2026-05-05 17:58 | 55.38214 | 37.55443 | 19401 ft | 411 kts | 141° |
| 2026-05-05 17:58 | 55.36044 | 37.58763 | 19871 ft | 414 kts | 141° |
| 2026-05-05 17:58 | 55.33863 | 37.62089 | 20338 ft | 417 kts | 142° |
| 2026-05-05 17:59 | 55.31660 | 37.65442 | 20789 ft | 420 kts | 142° |
| 2026-05-05 17:59 | 55.29449 | 37.68807 | 21226 ft | 422 kts | 142° |
| 2026-05-05 17:59 | 55.27221 | 37.72190 | 21649 ft | 425 kts | 142° |
| 2026-05-05 17:59 | 55.24977 | 37.75593 | 22064 ft | 428 kts | 142° |
| 2026-05-05 18:00 | 55.22710 | 37.79023 | 22473 ft | 431 kts | 142° |
| 2026-05-05 18:00 | 55.20437 | 37.82463 | 22873 ft | 433 kts | 142° |
| 2026-05-05 18:00 | 55.18179 | 37.85880 | 23260 ft | 436 kts | 142° |
| 2026-05-05 18:00 | 55.15878 | 37.89358 | 23601 ft | 438 kts | 142° |
| 2026-05-05 18:01 | 55.13564 | 37.92848 | 23929 ft | 440 kts | 142° |
| 2026-05-05 18:01 | 55.11237 | 37.96353 | 24250 ft | 442 kts | 142° |
| 2026-05-05 18:01 | 55.08898 | 37.99869 | 24560 ft | 444 kts | 142° |
| 2026-05-05 18:01 | 55.06548 | 38.03395 | 24873 ft | 446 kts | 142° |
| 2026-05-05 18:02 | 55.04189 | 38.06926 | 25189 ft | 448 kts | 142° |
| 2026-05-05 18:02 | 55.01819 | 38.10463 | 25496 ft | 449 kts | 142° |
| 2026-05-05 18:02 | 54.99439 | 38.14008 | 25798 ft | 451 kts | 142° |
| 2026-05-05 18:02 | 54.97052 | 38.17563 | 26101 ft | 453 kts | 142° |
| 2026-05-05 18:03 | 54.94653 | 38.21133 | 26382 ft | 454 kts | 142° |
| 2026-05-05 18:03 | 54.92245 | 38.24708 | 26674 ft | 456 kts | 142° |
| 2026-05-05 18:03 | 54.89818 | 38.28308 | 26947 ft | 458 kts | 142° |
| 2026-05-05 18:03 | 54.87389 | 38.31908 | 27220 ft | 460 kts | 142° |
| 2026-05-05 18:04 | 54.84950 | 38.35510 | 27475 ft | 461 kts | 142° |
| 2026-05-05 18:04 | 54.82501 | 38.39115 | 27727 ft | 463 kts | 142° |
| 2026-05-05 18:04 | 54.80038 | 38.42733 | 28001 ft | 464 kts | 142° |
| 2026-05-05 18:04 | 54.77570 | 38.46355 | 28250 ft | 466 kts | 142° |
| 2026-05-05 18:05 | 54.75096 | 38.49980 | 28479 ft | 467 kts | 142° |
| 2026-05-05 18:05 | 54.72613 | 38.53618 | 28701 ft | 468 kts | 141° |
| 2026-05-05 18:05 | 54.70124 | 38.57266 | 28913 ft | 470 kts | 141° |
| 2026-05-05 18:05 | 54.67619 | 38.60927 | 29131 ft | 471 kts | 141° |
| 2026-05-05 18:06 | 54.65107 | 38.64585 | 29337 ft | 472 kts | 141° |
| 2026-05-05 18:06 | 54.63444 | 38.67006 | 29476 ft | 473 kts | 141° |
| 2026-05-05 18:06 | 54.60081 | 38.71897 | 29867 ft | 472 kts | 141° |
| 2026-05-05 18:06 | 54.57575 | 38.75536 | 30134 ft | 471 kts | 141° |
| 2026-05-05 18:07 | 54.55068 | 38.79168 | 30389 ft | 469 kts | 141° |
| 2026-05-05 18:07 | 54.52566 | 38.82786 | 30654 ft | 468 kts | 141° |
| 2026-05-05 18:07 | 54.50077 | 38.86376 | 30907 ft | 467 kts | 141° |
| 2026-05-05 18:07 | 54.47584 | 38.89963 | 31160 ft | 466 kts | 141° |
| 2026-05-05 18:08 | 54.45097 | 38.93537 | 31417 ft | 465 kts | 142° |
| 2026-05-05 18:08 | 54.42655 | 38.97047 | 31673 ft | 464 kts | 140° |
| 2026-05-05 18:08 | 54.40368 | 39.00951 | 31909 ft | 464 kts | 131° |
| 2026-05-05 18:08 | 54.38452 | 39.05417 | 32161 ft | 465 kts | 122° |
| 2026-05-05 18:09 | 54.36958 | 39.10330 | 32394 ft | 465 kts | 113° |
| 2026-05-05 18:09 | 54.35747 | 39.15471 | 32612 ft | 465 kts | 113° |
| 2026-05-05 18:09 | 54.34530 | 39.20597 | 32820 ft | 465 kts | 113° |
| 2026-05-05 18:10 | 54.32061 | 39.30815 | 32876 ft | 464 kts | 114° |
| 2026-05-05 18:10 | 54.29580 | 39.41008 | 32876 ft | 463 kts | 114° |
| 2026-05-05 18:11 | 54.27094 | 39.51191 | 32874 ft | 463 kts | 114° |
| 2026-05-05 18:11 | 54.24600 | 39.61345 | 32876 ft | 463 kts | 114° |
| 2026-05-05 18:12 | 54.22098 | 39.71479 | 32875 ft | 462 kts | 114° |
| 2026-05-05 18:12 | 54.19601 | 39.81596 | 32877 ft | 462 kts | 114° |
| 2026-05-05 18:13 | 54.17095 | 39.91692 | 32880 ft | 462 kts | 114° |
| 2026-05-05 18:13 | 54.14575 | 40.01767 | 32877 ft | 462 kts | 114° |
| 2026-05-05 18:14 | 54.12054 | 40.11826 | 32879 ft | 461 kts | 112° |
| 2026-05-05 18:14 | 54.10156 | 40.22261 | 32881 ft | 461 kts | 107° |
| 2026-05-05 18:15 | 54.08349 | 40.32753 | 32881 ft | 461 kts | 107° |
| 2026-05-05 18:15 | 54.06529 | 40.43212 | 32885 ft | 461 kts | 107° |
| 2026-05-05 18:16 | 54.04697 | 40.53644 | 32883 ft | 461 kts | 107° |
| 2026-05-05 18:16 | 54.02836 | 40.64128 | 32884 ft | 461 kts | 107° |
| 2026-05-05 18:17 | 54.00991 | 40.74522 | 32885 ft | 460 kts | 107° |
| 2026-05-05 18:17 | 53.99127 | 40.84992 | 32888 ft | 460 kts | 107° |
| 2026-05-05 18:18 | 53.97260 | 40.95364 | 32890 ft | 460 kts | 107° |
| 2026-05-05 18:18 | 53.95396 | 41.05723 | 32888 ft | 460 kts | 107° |
| 2026-05-05 18:19 | 53.93654 | 41.16161 | 32889 ft | 460 kts | 105° |
| 2026-05-05 18:19 | 53.91990 | 41.26630 | 32888 ft | 459 kts | 105° |
| 2026-05-05 18:20 | 53.90287 | 41.37064 | 32894 ft | 459 kts | 106° |
| 2026-05-05 18:20 | 53.88543 | 41.47479 | 32891 ft | 459 kts | 106° |
| 2026-05-05 18:21 | 53.86790 | 41.57868 | 32892 ft | 459 kts | 106° |
| 2026-05-05 18:21 | 53.85044 | 41.68261 | 32894 ft | 459 kts | 106° |
| 2026-05-05 18:22 | 53.83284 | 41.78651 | 32896 ft | 459 kts | 107° |
| 2026-05-05 18:22 | 53.81506 | 41.89002 | 32899 ft | 458 kts | 107° |
| 2026-05-05 18:23 | 53.79720 | 41.99390 | 32899 ft | 458 kts | 107° |
| 2026-05-05 18:23 | 53.77929 | 42.09737 | 32897 ft | 458 kts | 107° |
| 2026-05-05 18:24 | 53.76131 | 42.20082 | 32900 ft | 458 kts | 107° |
| 2026-05-05 18:24 | 53.74333 | 42.30344 | 32905 ft | 458 kts | 107° |
| 2026-05-05 18:25 | 53.72516 | 42.40658 | 32905 ft | 458 kts | 107° |
| 2026-05-05 18:25 | 53.70682 | 42.50968 | 32904 ft | 458 kts | 107° |
| 2026-05-05 18:26 | 53.68254 | 42.60856 | 32908 ft | 456 kts | 123° |
| 2026-05-05 18:26 | 53.64089 | 42.68910 | 32906 ft | 453 kts | 142° |
| 2026-05-05 18:27 | 53.58682 | 42.74225 | 32911 ft | 450 kts | 158° |
| 2026-05-05 18:27 | 53.52911 | 42.78377 | 32913 ft | 451 kts | 158° |
| 2026-05-05 18:28 | 53.44298 | 42.84579 | 32967 ft | 451 kts | 158° |
| 2026-05-05 18:28 | 53.41412 | 42.86647 | 33197 ft | 451 kts | 158° |
| 2026-05-05 18:28 | 53.38525 | 42.88710 | 33424 ft | 451 kts | 158° |
| 2026-05-05 18:29 | 53.35599 | 42.90800 | 33655 ft | 451 kts | 158° |
| 2026-05-05 18:29 | 53.32754 | 42.92831 | 33857 ft | 450 kts | 158° |
| 2026-05-05 18:29 | 53.29834 | 42.94915 | 34038 ft | 451 kts | 158° |
| 2026-05-05 18:29 | 53.26983 | 42.96946 | 34208 ft | 451 kts | 158° |
| 2026-05-05 18:30 | 53.24059 | 42.99029 | 34388 ft | 451 kts | 158° |
| 2026-05-05 18:30 | 53.21212 | 43.01058 | 34573 ft | 450 kts | 158° |
| 2026-05-05 18:30 | 53.18322 | 43.03112 | 34752 ft | 450 kts | 158° |
| 2026-05-05 18:30 | 53.15437 | 43.05155 | 34894 ft | 450 kts | 158° |
| 2026-05-05 18:31 | 53.09686 | 43.09276 | 34934 ft | 450 kts | 157° |
| 2026-05-05 18:31 | 53.03983 | 43.13556 | 34933 ft | 449 kts | 156° |
| 2026-05-05 18:32 | 52.98286 | 43.17837 | 34938 ft | 449 kts | 157° |
| 2026-05-05 18:32 | 52.92576 | 43.22073 | 34936 ft | 449 kts | 157° |
| 2026-05-05 18:33 | 52.87825 | 43.25560 | 34938 ft | 449 kts | 157° |
| 2026-05-05 18:33 | 52.82066 | 43.29783 | 34942 ft | 449 kts | 157° |
| 2026-05-05 18:34 | 52.76356 | 43.33976 | 34942 ft | 450 kts | 157° |
| 2026-05-05 18:34 | 52.70634 | 43.38174 | 34939 ft | 449 kts | 157° |
| 2026-05-05 18:35 | 52.64924 | 43.42343 | 34942 ft | 449 kts | 157° |
| 2026-05-05 18:35 | 52.59200 | 43.46499 | 34943 ft | 449 kts | 157° |
| 2026-05-05 18:36 | 52.53484 | 43.50633 | 34944 ft | 448 kts | 157° |
| 2026-05-05 18:36 | 52.47770 | 43.54757 | 34944 ft | 449 kts | 157° |
| 2026-05-05 18:37 | 52.42058 | 43.58876 | 34943 ft | 448 kts | 157° |
| 2026-05-05 18:37 | 52.36342 | 43.62987 | 34942 ft | 448 kts | 157° |
| 2026-05-05 18:38 | 52.30662 | 43.67062 | 34944 ft | 449 kts | 157° |
| 2026-05-05 18:38 | 52.24940 | 43.71152 | 34947 ft | 449 kts | 157° |
| 2026-05-05 18:39 | 52.19213 | 43.75225 | 34948 ft | 449 kts | 157° |
| 2026-05-05 18:39 | 52.13488 | 43.79300 | 34952 ft | 449 kts | 157° |
| 2026-05-05 18:40 | 52.07765 | 43.83357 | 34957 ft | 449 kts | 157° |
| 2026-05-05 18:40 | 52.02030 | 43.87404 | 34954 ft | 449 kts | 157° |
| 2026-05-05 18:41 | 51.96298 | 43.91444 | 34960 ft | 449 kts | 157° |
| 2026-05-05 18:41 | 51.90559 | 43.95486 | 34968 ft | 450 kts | 157° |
| 2026-05-05 18:42 | 51.84826 | 43.99509 | 34967 ft | 449 kts | 157° |
| 2026-05-05 18:42 | 51.79084 | 44.03510 | 34962 ft | 449 kts | 157° |
| 2026-05-05 18:43 | 51.73345 | 44.07505 | 34964 ft | 449 kts | 157° |
| 2026-05-05 18:43 | 51.67610 | 44.11495 | 34961 ft | 449 kts | 157° |
| 2026-05-05 18:44 | 51.61866 | 44.15487 | 34965 ft | 449 kts | 157° |
| 2026-05-05 18:44 | 51.56119 | 44.19462 | 34964 ft | 449 kts | 157° |
| 2026-05-05 18:45 | 51.50370 | 44.23419 | 34975 ft | 450 kts | 157° |
| 2026-05-05 18:45 | 51.44649 | 44.27349 | 34965 ft | 450 kts | 157° |
| 2026-05-05 18:46 | 51.38867 | 44.31312 | 34966 ft | 450 kts | 157° |
| 2026-05-05 18:46 | 51.33128 | 44.35231 | 34971 ft | 450 kts | 157° |
| 2026-05-05 18:47 | 51.27354 | 44.39179 | 34965 ft | 450 kts | 157° |
| 2026-05-05 18:47 | 51.21602 | 44.43094 | 34970 ft | 450 kts | 157° |
| 2026-05-05 18:48 | 51.18707 | 44.44945 | 34632 ft | 448 kts | 162° |
| 2026-05-05 18:48 | 51.15689 | 44.46114 | 34138 ft | 446 kts | 172° |
| 2026-05-05 18:48 | 51.12592 | 44.46498 | 33944 ft | 448 kts | 181° |
| 2026-05-05 18:48 | 51.09480 | 44.46267 | 33975 ft | 449 kts | 184° |
| 2026-05-05 18:49 | 51.03233 | 44.45697 | 33974 ft | 450 kts | 183° |
| 2026-05-05 18:49 | 50.96977 | 44.45142 | 33967 ft | 450 kts | 183° |
| 2026-05-05 18:50 | 50.90719 | 44.44571 | 33972 ft | 451 kts | 183° |
| 2026-05-05 18:50 | 50.84452 | 44.43987 | 33968 ft | 451 kts | 184° |
| 2026-05-05 18:51 | 50.78189 | 44.43394 | 33977 ft | 451 kts | 184° |
| 2026-05-05 18:51 | 50.71917 | 44.42809 | 33978 ft | 451 kts | 183° |
| 2026-05-05 18:52 | 50.65651 | 44.42222 | 33976 ft | 451 kts | 183° |
| 2026-05-05 18:52 | 50.59389 | 44.41645 | 33971 ft | 451 kts | 183° |
| 2026-05-05 18:53 | 50.53156 | 44.41085 | 33970 ft | 451 kts | 183° |
| 2026-05-05 18:53 | 50.46880 | 44.40509 | 33983 ft | 451 kts | 183° |
| 2026-05-05 18:54 | 50.40610 | 44.39935 | 33978 ft | 451 kts | 183° |
| 2026-05-05 18:54 | 50.34348 | 44.39358 | 33965 ft | 451 kts | 183° |
| 2026-05-05 18:55 | 50.28080 | 44.38792 | 33965 ft | 451 kts | 183° |
| 2026-05-05 18:55 | 50.21814 | 44.38232 | 33968 ft | 451 kts | 183° |
| 2026-05-05 18:56 | 50.15520 | 44.37658 | 33962 ft | 452 kts | 183° |
| 2026-05-05 18:56 | 50.09234 | 44.37087 | 33961 ft | 453 kts | 182° |
| 2026-05-05 18:57 | 50.02980 | 44.36530 | 33954 ft | 453 kts | 182° |
| 2026-05-05 18:57 | 49.96670 | 44.35964 | 33953 ft | 454 kts | 182° |
| 2026-05-05 18:58 | 49.90357 | 44.35400 | 33955 ft | 455 kts | 182° |
| 2026-05-05 18:58 | 49.84033 | 44.34833 | 33965 ft | 455 kts | 182° |
| 2026-05-05 18:59 | 49.77719 | 44.34266 | 33976 ft | 454 kts | 182° |
| 2026-05-05 18:59 | 49.71415 | 44.33716 | 33978 ft | 453 kts | 181° |
| 2026-05-05 19:00 | 49.65131 | 44.33161 | 33989 ft | 452 kts | 181° |
| 2026-05-05 19:00 | 49.58862 | 44.32855 | 33977 ft | 449 kts | 173° |
| 2026-05-05 19:01 | 49.52833 | 44.34947 | 33975 ft | 443 kts | 156° |
| 2026-05-05 19:01 | 49.47148 | 44.38599 | 33975 ft | 442 kts | 155° |
| 2026-05-05 19:02 | 49.41459 | 44.42219 | 33977 ft | 442 kts | 155° |
| 2026-05-05 19:02 | 49.35776 | 44.45814 | 33976 ft | 442 kts | 155° |
| 2026-05-05 19:03 | 49.30083 | 44.49417 | 33970 ft | 443 kts | 155° |
| 2026-05-05 19:03 | 49.24423 | 44.52989 | 33970 ft | 443 kts | 155° |
| 2026-05-05 19:04 | 49.18717 | 44.56575 | 33966 ft | 443 kts | 155° |
| 2026-05-05 19:04 | 49.13016 | 44.60154 | 33962 ft | 443 kts | 155° |
| 2026-05-05 19:05 | 49.07311 | 44.63729 | 33960 ft | 443 kts | 155° |
| 2026-05-05 19:05 | 49.01604 | 44.67291 | 33966 ft | 443 kts | 155° |
| 2026-05-05 19:06 | 48.95892 | 44.70848 | 33966 ft | 443 kts | 155° |
| 2026-05-05 19:06 | 48.90180 | 44.74395 | 33966 ft | 443 kts | 154° |
| 2026-05-05 19:07 | 48.85437 | 44.77339 | 33963 ft | 443 kts | 154° |
| 2026-05-05 19:07 | 48.79102 | 44.82373 | 33962 ft | 439 kts | 147° |
| 2026-05-05 19:08 | 48.73794 | 44.86944 | 33952 ft | 439 kts | 147° |
| 2026-05-05 19:08 | 48.68515 | 44.91472 | 33948 ft | 439 kts | 147° |
| 2026-05-05 19:09 | 48.63203 | 44.96013 | 33946 ft | 438 kts | 147° |
| 2026-05-05 19:09 | 48.57892 | 45.00551 | 33947 ft | 438 kts | 147° |
| 2026-05-05 19:10 | 48.52590 | 45.05078 | 33948 ft | 438 kts | 147° |
| 2026-05-05 19:10 | 48.47284 | 45.09590 | 33951 ft | 438 kts | 147° |
| 2026-05-05 19:11 | 48.41974 | 45.14085 | 33953 ft | 438 kts | 147° |
| 2026-05-05 19:11 | 48.36683 | 45.18539 | 33952 ft | 438 kts | 147° |
| 2026-05-05 19:12 | 48.31366 | 45.23030 | 33949 ft | 438 kts | 147° |
| 2026-05-05 19:12 | 48.26058 | 45.27508 | 33949 ft | 438 kts | 147° |
| 2026-05-05 19:13 | 48.20734 | 45.31976 | 33943 ft | 438 kts | 147° |
| 2026-05-05 19:13 | 48.15405 | 45.36435 | 33942 ft | 438 kts | 147° |
| 2026-05-05 19:14 | 48.10077 | 45.40883 | 33937 ft | 439 kts | 147° |
| 2026-05-05 19:14 | 48.04741 | 45.45333 | 33938 ft | 439 kts | 147° |
| 2026-05-05 19:15 | 47.99400 | 45.49780 | 33945 ft | 439 kts | 147° |
| 2026-05-05 19:15 | 47.94057 | 45.54209 | 33950 ft | 439 kts | 147° |
| 2026-05-05 19:16 | 47.89615 | 45.57893 | 33947 ft | 439 kts | 147° |
| 2026-05-05 19:16 | 47.84267 | 45.62313 | 33942 ft | 440 kts | 147° |
| 2026-05-05 19:17 | 47.78907 | 45.66717 | 33952 ft | 440 kts | 147° |
| 2026-05-05 19:17 | 47.73549 | 45.71114 | 33953 ft | 440 kts | 147° |
| 2026-05-05 19:18 | 47.68195 | 45.75515 | 33954 ft | 440 kts | 147° |
| 2026-05-05 19:18 | 47.62836 | 45.79895 | 33952 ft | 440 kts | 148° |
| 2026-05-05 19:19 | 47.57478 | 45.84282 | 33951 ft | 440 kts | 148° |
| 2026-05-05 19:19 | 47.52119 | 45.88651 | 33950 ft | 440 kts | 148° |
| 2026-05-05 19:20 | 47.46787 | 45.92983 | 33954 ft | 440 kts | 148° |
| 2026-05-05 19:20 | 47.41408 | 45.97333 | 33947 ft | 440 kts | 148° |
| 2026-05-05 19:21 | 47.36034 | 46.01678 | 33947 ft | 441 kts | 149° |
| 2026-05-05 19:21 | 47.30657 | 46.06010 | 33944 ft | 440 kts | 149° |
| 2026-05-05 19:22 | 47.25285 | 46.10331 | 33941 ft | 440 kts | 149° |
| 2026-05-05 19:22 | 47.19902 | 46.14656 | 33938 ft | 441 kts | 149° |
| 2026-05-05 19:23 | 47.14505 | 46.18970 | 33940 ft | 442 kts | 149° |
| 2026-05-05 19:23 | 47.09107 | 46.23293 | 33938 ft | 442 kts | 149° |
| 2026-05-05 19:24 | 47.04302 | 46.28780 | 33931 ft | 438 kts | 131° |
| 2026-05-05 19:24 | 47.00801 | 46.36022 | 33930 ft | 436 kts | 121° |
| 2026-05-05 19:25 | 46.97549 | 46.43529 | 33926 ft | 437 kts | 121° |
| 2026-05-05 19:25 | 46.94273 | 46.51032 | 33925 ft | 438 kts | 122° |
| 2026-05-05 19:26 | 46.90983 | 46.58531 | 33925 ft | 438 kts | 122° |
| 2026-05-05 19:26 | 46.87691 | 46.66043 | 33928 ft | 439 kts | 122° |
| 2026-05-05 19:27 | 46.84397 | 46.73551 | 33928 ft | 439 kts | 122° |
| 2026-05-05 19:27 | 46.81088 | 46.81060 | 33925 ft | 440 kts | 122° |
| 2026-05-05 19:28 | 46.77797 | 46.88511 | 33920 ft | 440 kts | 123° |
| 2026-05-05 19:28 | 46.74476 | 46.96014 | 33916 ft | 441 kts | 123° |
| 2026-05-05 19:29 | 46.71142 | 47.03515 | 33916 ft | 441 kts | 123° |
| 2026-05-05 19:29 | 46.67811 | 47.11023 | 33917 ft | 441 kts | 123° |
| 2026-05-05 19:30 | 46.64546 | 47.18531 | 33913 ft | 442 kts | 123° |
| 2026-05-05 19:30 | 46.61269 | 47.26098 | 33914 ft | 442 kts | 123° |
| 2026-05-05 19:31 | 46.57980 | 47.33649 | 33906 ft | 443 kts | 123° |
| 2026-05-05 19:31 | 46.54663 | 47.41194 | 33907 ft | 443 kts | 123° |
| 2026-05-05 19:32 | 46.51333 | 47.48735 | 33907 ft | 444 kts | 124° |
| 2026-05-05 19:32 | 46.47999 | 47.56286 | 33901 ft | 444 kts | 124° |
| 2026-05-05 19:33 | 46.44669 | 47.63838 | 33891 ft | 444 kts | 124° |
| 2026-05-05 19:33 | 46.41347 | 47.71329 | 33887 ft | 445 kts | 124° |
| 2026-05-05 19:34 | 46.37995 | 47.78858 | 33889 ft | 445 kts | 124° |
| 2026-05-05 19:35 | 46.32351 | 47.89381 | 33880 ft | 440 kts | 146° |
| 2026-05-05 19:35 | 46.29671 | 47.91456 | 33877 ft | 437 kts | 161° |
| 2026-05-05 19:35 | 46.26730 | 47.92512 | 33880 ft | 436 kts | 170° |
| 2026-05-05 19:36 | 46.20760 | 47.94099 | 33873 ft | 437 kts | 170° |
| 2026-05-05 19:36 | 46.14763 | 47.95674 | 33879 ft | 438 kts | 170° |
| 2026-05-05 19:37 | 46.08766 | 47.97266 | 33881 ft | 439 kts | 170° |
| 2026-05-05 19:37 | 46.02803 | 47.98850 | 33886 ft | 439 kts | 170° |
| 2026-05-05 19:38 | 45.96800 | 48.00449 | 33895 ft | 438 kts | 170° |
| 2026-05-05 19:38 | 45.90805 | 48.02039 | 33896 ft | 439 kts | 170° |
| 2026-05-05 19:39 | 45.84796 | 48.03618 | 33898 ft | 439 kts | 170° |
| 2026-05-05 19:39 | 45.78785 | 48.05193 | 33903 ft | 439 kts | 170° |
| 2026-05-05 19:40 | 45.72778 | 48.06774 | 33906 ft | 439 kts | 170° |
| 2026-05-05 19:40 | 45.66775 | 48.08354 | 33913 ft | 438 kts | 170° |
| 2026-05-05 19:41 | 45.60778 | 48.09926 | 33915 ft | 438 kts | 170° |
| 2026-05-05 19:41 | 45.54776 | 48.11485 | 33916 ft | 438 kts | 171° |
| 2026-05-05 19:42 | 45.48779 | 48.13045 | 33915 ft | 438 kts | 171° |
| 2026-05-05 19:42 | 45.42787 | 48.14606 | 33922 ft | 438 kts | 171° |
| 2026-05-05 19:43 | 45.36834 | 48.16160 | 33930 ft | 438 kts | 171° |
| 2026-05-05 19:43 | 45.30842 | 48.17717 | 33930 ft | 438 kts | 171° |
| 2026-05-05 19:44 | 45.24846 | 48.19257 | 33932 ft | 437 kts | 171° |
| 2026-05-05 19:44 | 45.18864 | 48.20784 | 33943 ft | 436 kts | 171° |
| 2026-05-05 19:45 | 45.12893 | 48.22312 | 33939 ft | 435 kts | 171° |
| 2026-05-05 19:45 | 45.06934 | 48.23841 | 33940 ft | 435 kts | 171° |
| 2026-05-05 19:46 | 45.01018 | 48.25372 | 33938 ft | 435 kts | 171° |
| 2026-05-05 19:46 | 44.95068 | 48.26897 | 33945 ft | 434 kts | 172° |
| 2026-05-05 19:47 | 44.89117 | 48.28409 | 33951 ft | 434 kts | 172° |
| 2026-05-05 19:47 | 44.83165 | 48.29923 | 33967 ft | 434 kts | 172° |
| 2026-05-05 19:48 | 44.77234 | 48.31423 | 33965 ft | 433 kts | 172° |
| 2026-05-05 19:48 | 44.71316 | 48.32920 | 33974 ft | 432 kts | 172° |
| 2026-05-05 19:49 | 44.65398 | 48.34418 | 33972 ft | 431 kts | 172° |
| 2026-05-05 19:49 | 44.59500 | 48.35913 | 33978 ft | 430 kts | 172° |
| 2026-05-05 19:50 | 44.53605 | 48.37400 | 33979 ft | 430 kts | 173° |
| 2026-05-05 19:50 | 44.47760 | 48.38865 | 33980 ft | 429 kts | 173° |
| 2026-05-05 19:51 | 44.41893 | 48.40340 | 33982 ft | 428 kts | 173° |
| 2026-05-05 19:51 | 44.36034 | 48.41808 | 33986 ft | 427 kts | 173° |
| 2026-05-05 19:52 | 44.30196 | 48.43263 | 33985 ft | 426 kts | 173° |
| 2026-05-05 19:52 | 44.24365 | 48.44714 | 33985 ft | 425 kts | 173° |
| 2026-05-05 19:53 | 44.18549 | 48.46162 | 33987 ft | 424 kts | 173° |
| 2026-05-05 19:53 | 44.12745 | 48.47596 | 33985 ft | 424 kts | 174° |
| 2026-05-05 19:54 | 44.06945 | 48.49038 | 33989 ft | 423 kts | 174° |
| 2026-05-05 19:54 | 44.01187 | 48.50469 | 33989 ft | 422 kts | 174° |
| 2026-05-05 19:55 | 43.95417 | 48.51889 | 33991 ft | 421 kts | 174° |
| 2026-05-05 19:55 | 43.89657 | 48.53295 | 33992 ft | 421 kts | 174° |
| 2026-05-05 19:56 | 43.83893 | 48.54648 | 33993 ft | 417 kts | 180° |
| 2026-05-05 19:56 | 43.81025 | 48.54385 | 33989 ft | 408 kts | 197° |
| 2026-05-05 19:56 | 43.78438 | 48.52921 | 33985 ft | 404 kts | 213° |
| 2026-05-05 19:56 | 43.76330 | 48.50410 | 33987 ft | 404 kts | 230° |
| 2026-05-05 19:57 | 43.74887 | 48.47081 | 33982 ft | 408 kts | 246° |
| 2026-05-05 19:57 | 43.73680 | 48.39323 | 33970 ft | 414 kts | 256° |
| 2026-05-05 19:58 | 43.72677 | 48.31484 | 33973 ft | 415 kts | 256° |
| 2026-05-05 19:58 | 43.71666 | 48.23631 | 33972 ft | 416 kts | 256° |
| 2026-05-05 19:59 | 43.70638 | 48.15737 | 33975 ft | 418 kts | 256° |
| 2026-05-05 19:59 | 43.69598 | 48.07829 | 33981 ft | 419 kts | 256° |
| 2026-05-05 20:00 | 43.68561 | 47.99959 | 33984 ft | 419 kts | 256° |
| 2026-05-05 20:00 | 43.67509 | 47.92025 | 33980 ft | 420 kts | 256° |
| 2026-05-05 20:01 | 43.66454 | 47.84120 | 33991 ft | 420 kts | 256° |
| 2026-05-05 20:01 | 43.65383 | 47.76198 | 33990 ft | 421 kts | 256° |
| 2026-05-05 20:02 | 43.64313 | 47.68222 | 33988 ft | 422 kts | 256° |
| 2026-05-05 20:02 | 43.63238 | 47.60248 | 33991 ft | 423 kts | 256° |
| 2026-05-05 20:03 | 43.62150 | 47.52314 | 33986 ft | 423 kts | 256° |
| 2026-05-05 20:03 | 43.61204 | 47.44276 | 33988 ft | 426 kts | 259° |
| 2026-05-05 20:04 | 43.60589 | 47.36137 | 33995 ft | 427 kts | 261° |
| 2026-05-05 20:04 | 43.60008 | 47.27948 | 33990 ft | 427 kts | 261° |
| 2026-05-05 20:05 | 43.59359 | 47.19848 | 33992 ft | 428 kts | 260° |
| 2026-05-05 20:05 | 43.58655 | 47.11694 | 33991 ft | 428 kts | 260° |
| 2026-05-05 20:06 | 43.57941 | 47.03535 | 33995 ft | 429 kts | 260° |
| 2026-05-05 20:06 | 43.57241 | 46.95349 | 33994 ft | 430 kts | 260° |
| 2026-05-05 20:07 | 43.56537 | 46.87166 | 33998 ft | 430 kts | 260° |
| 2026-05-05 20:07 | 43.55817 | 46.78968 | 34000 ft | 431 kts | 260° |
| 2026-05-05 20:08 | 43.55093 | 46.70821 | 34007 ft | 431 kts | 260° |
| 2026-05-05 20:08 | 43.54366 | 46.62614 | 34003 ft | 431 kts | 260° |
| 2026-05-05 20:09 | 43.53632 | 46.54411 | 34001 ft | 431 kts | 260° |
| 2026-05-05 20:09 | 43.52893 | 46.46203 | 34005 ft | 432 kts | 260° |
| 2026-05-05 20:10 | 43.52147 | 46.37994 | 34008 ft | 432 kts | 260° |
| 2026-05-05 20:10 | 43.51392 | 46.29782 | 34003 ft | 432 kts | 260° |
| 2026-05-05 20:11 | 43.50625 | 46.21563 | 34002 ft | 433 kts | 260° |
| 2026-05-05 20:11 | 43.49852 | 46.13408 | 34007 ft | 433 kts | 260° |
| 2026-05-05 20:12 | 43.49130 | 46.05173 | 33996 ft | 434 kts | 265° |
| 2026-05-05 20:12 | 43.49576 | 45.96846 | 33997 ft | 437 kts | 274° |
| 2026-05-05 20:13 | 43.50271 | 45.88523 | 33995 ft | 438 kts | 274° |
| 2026-05-05 20:13 | 43.50848 | 45.81604 | 33998 ft | 438 kts | 274° |
| 2026-05-05 20:14 | 43.51533 | 45.73252 | 33993 ft | 438 kts | 274° |
| 2026-05-05 20:14 | 43.52213 | 45.64902 | 33992 ft | 439 kts | 274° |
| 2026-05-05 20:15 | 43.52881 | 45.56592 | 33993 ft | 439 kts | 274° |
| 2026-05-05 20:15 | 43.53538 | 45.48242 | 33996 ft | 438 kts | 274° |
| 2026-05-05 20:16 | 43.54188 | 45.39877 | 33999 ft | 439 kts | 274° |
| 2026-05-05 20:16 | 43.54843 | 45.31510 | 34005 ft | 439 kts | 274° |
| 2026-05-05 20:17 | 43.55498 | 45.23128 | 33879 ft | 441 kts | 274° |
| 2026-05-05 20:17 | 43.55817 | 45.18928 | 33064 ft | 443 kts | 274° |
| 2026-05-05 20:17 | 43.56135 | 45.14692 | 32146 ft | 445 kts | 274° |
| 2026-05-05 20:17 | 43.56453 | 45.10432 | 31204 ft | 449 kts | 275° |
| 2026-05-05 20:18 | 43.56776 | 45.06181 | 30712 ft | 442 kts | 275° |
| 2026-05-05 20:18 | 43.57097 | 45.01989 | 30102 ft | 438 kts | 275° |
| 2026-05-05 20:18 | 43.57415 | 44.97832 | 29451 ft | 434 kts | 275° |
| 2026-05-05 20:18 | 43.57724 | 44.93721 | 28872 ft | 429 kts | 275° |
| 2026-05-05 20:19 | 43.58021 | 44.89710 | 28310 ft | 424 kts | 275° |
| 2026-05-05 20:19 | 43.58319 | 44.85685 | 27734 ft | 419 kts | 275° |
| 2026-05-05 20:19 | 43.58610 | 44.81707 | 27176 ft | 415 kts | 275° |
| 2026-05-05 20:19 | 43.58897 | 44.77755 | 26614 ft | 411 kts | 275° |
| 2026-05-05 20:20 | 43.59182 | 44.73839 | 26071 ft | 408 kts | 275° |
| 2026-05-05 20:20 | 43.59466 | 44.69963 | 25535 ft | 405 kts | 275° |
| 2026-05-05 20:20 | 43.59745 | 44.66117 | 25011 ft | 402 kts | 275° |
| 2026-05-05 20:20 | 43.60019 | 44.62295 | 24489 ft | 399 kts | 275° |
| 2026-05-05 20:21 | 43.60291 | 44.58506 | 23991 ft | 396 kts | 275° |
| 2026-05-05 20:21 | 43.60562 | 44.54741 | 23481 ft | 393 kts | 275° |
| 2026-05-05 20:21 | 43.60827 | 44.51007 | 22985 ft | 389 kts | 275° |
| 2026-05-05 20:21 | 43.61087 | 44.47318 | 22514 ft | 384 kts | 275° |
| 2026-05-05 20:22 | 43.61345 | 44.43662 | 22072 ft | 380 kts | 275° |
| 2026-05-05 20:22 | 43.61592 | 44.40098 | 21624 ft | 376 kts | 275° |
| 2026-05-05 20:22 | 43.61838 | 44.36479 | 21180 ft | 372 kts | 275° |
| 2026-05-05 20:22 | 43.62078 | 44.32932 | 20743 ft | 369 kts | 275° |
| 2026-05-05 20:23 | 43.62311 | 44.29466 | 20300 ft | 366 kts | 275° |
| 2026-05-05 20:23 | 43.62547 | 44.25979 | 19852 ft | 364 kts | 275° |
| 2026-05-05 20:23 | 43.62782 | 44.22518 | 19411 ft | 361 kts | 275° |
| 2026-05-05 20:23 | 43.63020 | 44.19078 | 18943 ft | 360 kts | 276° |
| 2026-05-05 20:24 | 43.63494 | 44.15694 | 18494 ft | 359 kts | 287° |
| 2026-05-05 20:24 | 43.64442 | 44.12519 | 17993 ft | 358 kts | 298° |
| 2026-05-05 20:24 | 43.65823 | 44.09680 | 17519 ft | 356 kts | 309° |
| 2026-05-05 20:24 | 43.67488 | 44.07163 | 17056 ft | 354 kts | 312° |
| 2026-05-05 20:25 | 43.69153 | 44.04674 | 16595 ft | 352 kts | 311° |
| 2026-05-05 20:25 | 43.70806 | 44.02184 | 16135 ft | 350 kts | 311° |
| 2026-05-05 20:25 | 43.72450 | 43.99707 | 15678 ft | 349 kts | 311° |
| 2026-05-05 20:25 | 43.74091 | 43.97239 | 15223 ft | 348 kts | 311° |
| 2026-05-05 20:26 | 43.75724 | 43.94776 | 14763 ft | 347 kts | 311° |
| 2026-05-05 20:26 | 43.77349 | 43.92314 | 14307 ft | 346 kts | 311° |
| 2026-05-05 20:26 | 43.78970 | 43.89861 | 13845 ft | 345 kts | 311° |
| 2026-05-05 20:26 | 43.80566 | 43.87443 | 13350 ft | 344 kts | 311° |
| 2026-05-05 20:27 | 43.82173 | 43.85005 | 12867 ft | 341 kts | 311° |
| 2026-05-05 20:27 | 43.83765 | 43.82584 | 12407 ft | 338 kts | 311° |
| 2026-05-05 20:27 | 43.85265 | 43.80096 | 11932 ft | 335 kts | 305° |
| 2026-05-05 20:27 | 43.86638 | 43.77497 | 11462 ft | 333 kts | 305° |
| 2026-05-05 20:28 | 43.88003 | 43.74928 | 10985 ft | 330 kts | 306° |
| 2026-05-05 20:28 | 43.89367 | 43.72374 | 10516 ft | 328 kts | 306° |
| 2026-05-05 20:28 | 43.90701 | 43.69874 | 10349 ft | 316 kts | 306° |
| 2026-05-05 20:28 | 43.91979 | 43.67475 | 10230 ft | 304 kts | 305° |
| 2026-05-05 20:29 | 43.93211 | 43.65160 | 10103 ft | 293 kts | 306° |
| 2026-05-05 20:29 | 43.94385 | 43.62952 | 9930 ft | 285 kts | 306° |
| 2026-05-05 20:29 | 43.95557 | 43.60753 | 9517 ft | 284 kts | 306° |
| 2026-05-05 20:29 | 43.96724 | 43.58561 | 9130 ft | 281 kts | 306° |
| 2026-05-05 20:30 | 43.97893 | 43.56358 | 8679 ft | 280 kts | 306° |
| 2026-05-05 20:30 | 43.99034 | 43.54205 | 8086 ft | 276 kts | 306° |
| 2026-05-05 20:30 | 44.00160 | 43.52064 | 7430 ft | 272 kts | 306° |
| 2026-05-05 20:30 | 44.01278 | 43.49951 | 6818 ft | 269 kts | 306° |
| 2026-05-05 20:31 | 44.02388 | 43.47857 | 6278 ft | 271 kts | 306° |
| 2026-05-05 20:31 | 44.03504 | 43.45760 | 5855 ft | 268 kts | 307° |
| 2026-05-05 20:31 | 44.04691 | 43.43735 | 5427 ft | 268 kts | 310° |
| 2026-05-05 20:31 | 44.05878 | 43.41825 | 5269 ft | 253 kts | 310° |
| 2026-05-05 20:32 | 44.06993 | 43.40046 | 5151 ft | 235 kts | 310° |
| 2026-05-05 20:32 | 44.08031 | 43.38386 | 5058 ft | 229 kts | 310° |
| 2026-05-05 20:32 | 44.09069 | 43.36716 | 4963 ft | 228 kts | 310° |
| 2026-05-05 20:32 | 44.10099 | 43.35053 | 4861 ft | 224 kts | 310° |
| 2026-05-05 20:33 | 44.11089 | 43.33450 | 4763 ft | 213 kts | 310° |
| 2026-05-05 20:33 | 44.12023 | 43.31920 | 4653 ft | 204 kts | 306° |
| 2026-05-05 20:33 | 44.12763 | 43.30246 | 4417 ft | 202 kts | 300° |
| 2026-05-05 20:33 | 44.13481 | 43.28570 | 4153 ft | 201 kts | 301° |
| 2026-05-05 20:34 | 44.14223 | 43.26915 | 3882 ft | 201 kts | 302° |
| 2026-05-05 20:34 | 44.14967 | 43.25279 | 3648 ft | 197 kts | 302° |
| 2026-05-05 20:34 | 44.15694 | 43.23681 | 3360 ft | 194 kts | 302° |
| 2026-05-05 20:34 | 44.16410 | 43.22111 | 3093 ft | 190 kts | 302° |
| 2026-05-05 20:35 | 44.17105 | 43.20580 | 2837 ft | 183 kts | 302° |
| 2026-05-05 20:35 | 44.17761 | 43.19138 | 2585 ft | 169 kts | 302° |
| 2026-05-05 20:35 | 44.18371 | 43.17799 | 2370 ft | 159 kts | 302° |
| 2026-05-05 20:35 | 44.18947 | 43.16530 | 2120 ft | 155 kts | 302° |
| 2026-05-05 20:36 | 44.19518 | 43.15273 | 1910 ft | 152 kts | 302° |
| 2026-05-05 20:36 | 44.20080 | 43.14037 | 1707 ft | 150 kts | 302° |
| 2026-05-05 20:36 | 44.20637 | 43.12809 | 1513 ft | 149 kts | 301° |
| 2026-05-05 20:36 | 44.21186 | 43.11588 | 1302 ft | 148 kts | 301° |
| 2026-05-05 20:37 | 44.21738 | 43.10373 | 1097 ft | 148 kts | 302° |
| 2026-05-05 20:37 | 44.22248 | 43.09250 | 1053 ft | 115 kts | 302° |
| 2026-05-05 20:37 | 44.22585 | 43.08508 | 1054 ft | 65 kts | 302° |
| 2026-05-05 20:37 | 44.22732 | 43.08184 | 1050 ft | 21 kts | 303° |
| 2026-05-05 20:38 | 44.22779 | 43.08080 | 1050 ft | 9 kts | 297° |
| 2026-05-05 20:38 | 44.22795 | 43.08012 | 1049 ft | 5 kts | 283° |
| 2026-05-05 20:38 | 44.22811 | 43.07983 | 1048 ft | 2 kts | 341° |
| 2026-05-05 20:38 | 44.22821 | 43.07992 | 1048 ft | 1 kts | 43° |
| 2026-05-05 20:39 | 44.22816 | 43.08010 | 1048 ft | 3 kts | 122° |
| 2026-05-05 20:39 | 44.22795 | 43.08056 | 1049 ft | 8 kts | 122° |
| 2026-05-05 20:39 | 44.22758 | 43.08139 | 1050 ft | 12 kts | 123° |
| 2026-05-05 20:39 | 44.22699 | 43.08262 | 1050 ft | 18 kts | 125° |
| 2026-05-05 20:40 | 44.22623 | 43.08422 | 1054 ft | 21 kts | 123° |
| 2026-05-05 20:40 | 44.22535 | 43.08615 | 1054 ft | 26 kts | 123° |
| 2026-05-05 20:40 | 44.22408 | 43.08804 | 1053 ft | 28 kts | 145° |
| 2026-05-05 20:40 | 44.22272 | 43.08905 | 1053 ft | 21 kts | 153° |
| 2026-05-05 20:41 | 44.22141 | 43.09003 | 1053 ft | 21 kts | 151° |
| 2026-05-05 20:41 | 44.22005 | 43.09105 | 1051 ft | 21 kts | 152° |
| 2026-05-05 20:41 | 44.21920 | 43.09112 | 1051 ft | 10 kts | 211° |
| 2026-05-05 20:41 | 44.21865 | 43.09069 | 1051 ft | 8 kts | 205° |
| 2026-05-05 20:42 | 44.21817 | 43.09040 | 1051 ft | 7 kts | 206° |
| 2026-05-05 20:42 | 44.21782 | 43.09009 | 1051 ft | 5 kts | 212° |
| 2026-05-05 20:42 | 44.21756 | 43.08987 | 1051 ft | 1 kts | 212° |
| 2026-05-05 20:42 | 44.21753 | 43.08984 | 1051 ft | 0 kts | 212° |